createdAt,value
2019-03-23T00:01:40.649Z,44.40
2019-03-23T00:04:10.315Z,36.87
2019-03-23T00:06:39.938Z,34.33
2019-03-23T00:09:09.544Z,43.23
2019-03-23T00:11:39.164Z,36.33
2019-03-23T00:14:08.794Z,45.73
2019-03-23T00:16:38.365Z,60.43
2019-03-23T00:19:08.034Z,35.07
2019-03-23T00:21:37.635Z,30.97
2019-03-23T00:24:07.278Z,25.13
2019-03-23T00:26:36.876Z,20.40
2019-03-23T00:29:06.500Z,17.40
2019-03-23T00:31:36.215Z,16.97
2019-03-23T00:34:05.846Z,16.40
2019-03-23T00:36:41.473Z,16.33
2019-03-23T00:39:07.850Z,16.07
2019-03-23T00:41:37.455Z,16.67
2019-03-23T00:44:07.543Z,16.03
2019-03-23T00:46:37.412Z,15.67
2019-03-23T00:49:07.050Z,15.73
2019-03-23T00:51:36.660Z,15.23
2019-03-23T00:54:06.367Z,17.17
2019-03-23T00:56:35.982Z,17.07
2019-03-23T00:59:05.660Z,16.63
2019-03-23T01:01:35.370Z,20.60
2019-03-23T01:04:04.995Z,19.33
2019-03-23T01:06:34.711Z,17.47
2019-03-23T01:09:06.292Z,18.70
2019-03-23T01:11:35.908Z,18.43
2019-03-23T01:14:05.641Z,17.10
2019-03-23T01:16:35.250Z,19.47
2019-03-23T01:19:04.890Z,24.33
2019-03-23T01:21:34.474Z,19.73
2019-03-23T01:24:04.122Z,21.53
2019-03-23T01:26:33.864Z,22.43
2019-03-23T01:29:03.499Z,18.40
2019-03-23T01:31:33.130Z,16.37
2019-03-23T01:34:02.764Z,17.80
2019-03-23T01:36:32.371Z,16.90
2019-03-23T01:39:02.114Z,16.60
2019-03-23T01:41:31.730Z,16.33
2019-03-23T01:44:01.418Z,20.73
2019-03-23T01:46:31.024Z,21.07
2019-03-23T01:49:00.630Z,22.87
2019-03-23T01:51:30.258Z,21.93
2019-03-23T01:53:59.897Z,21.20
2019-03-23T01:56:29.702Z,20.67
2019-03-23T01:58:59.340Z,22.00
2019-03-23T02:01:29.023Z,22.57
2019-03-23T02:03:58.606Z,21.07
2019-03-23T02:06:28.254Z,20.13
2019-03-23T02:08:57.872Z,19.80
2019-03-23T02:11:27.509Z,20.77
2019-03-23T02:13:57.170Z,20.27
2019-03-23T02:16:26.806Z,20.73
2019-03-23T02:18:56.424Z,19.80
2019-03-23T02:21:26.138Z,20.67
2019-03-23T02:23:55.674Z,21.63
2019-03-23T02:26:25.295Z,19.00
2019-03-23T02:28:55.002Z,19.50
2019-03-23T02:31:24.631Z,19.67
2019-03-23T02:33:54.208Z,19.33
2019-03-23T02:36:23.852Z,20.43
2019-03-23T02:38:53.491Z,20.03
2019-03-23T02:41:23.113Z,19.77
2019-03-23T02:43:52.731Z,20.57
2019-03-23T02:46:22.369Z,19.07
2019-03-23T02:48:52.049Z,20.33
2019-03-23T02:51:21.670Z,20.20
2019-03-23T02:53:51.274Z,20.30
2019-03-23T02:56:20.900Z,20.53
2019-03-23T02:58:50.573Z,21.67
2019-03-23T03:01:20.249Z,22.53
2019-03-23T03:03:49.883Z,21.33
2019-03-23T03:06:19.520Z,21.37
2019-03-23T03:08:49.118Z,21.17
2019-03-23T03:11:18.759Z,21.77
2019-03-23T03:13:48.445Z,20.13
2019-03-23T03:16:18.130Z,20.77
2019-03-23T03:18:47.743Z,20.47
2019-03-23T03:21:17.357Z,19.93
2019-03-23T03:23:46.970Z,20.93
2019-03-23T03:26:16.689Z,19.80
2019-03-23T03:28:46.226Z,19.23
2019-03-23T03:31:15.885Z,20.40
2019-03-23T03:33:45.468Z,20.80
2019-03-23T03:36:15.089Z,20.50
2019-03-23T03:38:44.863Z,21.00
2019-03-23T03:41:14.482Z,19.97
2019-03-23T03:43:44.105Z,20.37
2019-03-23T03:46:13.731Z,20.37
2019-03-23T03:48:43.349Z,19.60
2019-03-23T03:51:12.995Z,21.90
2019-03-23T03:53:42.589Z,22.37
2019-03-23T03:56:12.279Z,21.37
2019-03-23T03:58:41.895Z,20.50
2019-03-23T04:01:11.471Z,22.27
2019-03-23T04:03:42.204Z,22.20
2019-03-23T04:06:11.841Z,21.13
2019-03-23T04:08:41.384Z,19.83
2019-03-23T04:11:10.945Z,21.80
2019-03-23T04:13:40.516Z,19.67
2019-03-23T04:16:10.151Z,19.53
2019-03-23T04:18:39.783Z,19.90
2019-03-23T04:21:09.443Z,20.57
2019-03-23T04:23:39.108Z,19.97
2019-03-23T04:26:08.730Z,20.33
2019-03-23T04:28:38.245Z,22.50
2019-03-23T04:31:07.874Z,23.20
2019-03-23T04:33:37.467Z,23.73
2019-03-23T04:36:07.077Z,22.30
2019-03-23T04:38:36.697Z,22.47
2019-03-23T04:41:06.993Z,24.93
2019-03-23T04:43:36.587Z,23.93
2019-03-23T04:46:06.209Z,24.37
2019-03-23T04:48:35.807Z,24.00
2019-03-23T04:51:05.431Z,22.30
2019-03-23T04:53:35.063Z,22.13
2019-03-23T04:56:04.672Z,21.57
2019-03-23T04:58:34.283Z,21.97
2019-03-23T05:01:04.457Z,22.10
2019-03-23T05:03:34.292Z,23.03
2019-03-23T05:06:03.931Z,23.27
2019-03-23T05:08:33.851Z,22.87
2019-03-23T05:11:03.549Z,23.57
2019-03-23T05:13:33.153Z,23.03
2019-03-23T05:16:02.827Z,24.10
2019-03-23T05:18:32.501Z,22.97
2019-03-23T05:21:02.113Z,23.62
2019-03-23T05:23:31.746Z,24.13
2019-03-23T05:26:01.359Z,23.57
2019-03-23T05:28:30.985Z,24.93
2019-03-23T05:31:00.594Z,24.57
2019-03-23T05:33:30.198Z,23.23
2019-03-23T05:35:59.827Z,24.33
2019-03-23T05:38:29.467Z,24.67
2019-03-23T05:40:59.067Z,23.63
2019-03-23T05:43:28.668Z,23.60
2019-03-23T05:45:58.221Z,23.87
2019-03-23T05:48:27.831Z,24.37
2019-03-23T05:50:57.543Z,25.87
2019-03-23T05:53:27.166Z,24.97
2019-03-23T05:55:56.782Z,25.30
2019-03-23T05:58:26.349Z,25.07
2019-03-23T06:00:56.035Z,25.57
2019-03-23T06:03:25.709Z,26.17
2019-03-23T06:05:55.327Z,24.50
2019-03-23T06:08:24.951Z,24.30
2019-03-23T06:10:54.557Z,24.97
2019-03-23T06:13:24.163Z,25.00
2019-03-23T06:15:53.789Z,25.70
2019-03-23T06:18:23.392Z,23.83
2019-03-23T06:20:52.993Z,25.47
2019-03-23T06:23:22.642Z,25.93
2019-03-23T06:25:52.251Z,26.60
2019-03-23T06:28:21.843Z,24.53
2019-03-23T06:30:51.455Z,23.87
2019-03-23T06:33:21.069Z,26.40
2019-03-23T06:35:50.726Z,25.33
2019-03-23T06:38:20.381Z,25.30
2019-03-23T06:40:50.011Z,25.43
2019-03-23T06:43:19.622Z,25.97
2019-03-23T06:45:49.233Z,23.43
2019-03-23T06:48:18.889Z,24.50
2019-03-23T06:50:48.508Z,24.70
2019-03-23T06:53:18.105Z,28.30
2019-03-23T06:55:47.727Z,29.73
2019-03-23T06:58:17.420Z,29.53
2019-03-23T07:00:47.102Z,29.30
2019-03-23T07:03:16.714Z,30.40
2019-03-23T07:05:46.432Z,30.33
2019-03-23T07:08:16.149Z,28.37
2019-03-23T07:10:45.796Z,29.77
2019-03-23T07:13:15.353Z,29.83
2019-03-23T07:15:44.957Z,30.50
2019-03-23T07:18:14.668Z,28.80
2019-03-23T07:20:44.282Z,30.43
2019-03-23T07:23:13.928Z,30.37
2019-03-23T07:25:43.502Z,29.43
2019-03-23T07:28:13.106Z,29.73
2019-03-23T07:30:42.722Z,27.67
2019-03-23T07:33:12.355Z,29.93
2019-03-23T07:35:41.976Z,30.53
2019-03-23T07:38:11.573Z,28.80
2019-03-23T07:40:41.193Z,27.80
2019-03-23T07:43:10.856Z,29.00
2019-03-23T07:45:40.385Z,28.83
2019-03-23T07:48:10.016Z,26.67
2019-03-23T07:50:39.655Z,27.70
2019-03-23T07:53:09.275Z,25.83
2019-03-23T07:55:38.890Z,24.97
2019-03-23T07:58:08.433Z,26.30
2019-03-23T08:00:38.030Z,26.73
2019-03-23T08:03:07.667Z,24.90
2019-03-23T08:05:37.260Z,24.40
2019-03-23T08:08:06.972Z,25.87
2019-03-23T08:10:36.851Z,25.33
2019-03-23T08:13:06.457Z,23.97
2019-03-23T08:15:36.139Z,25.30
2019-03-23T08:18:05.763Z,23.33
2019-03-23T08:20:35.366Z,26.07
2019-03-23T08:23:04.984Z,24.37
2019-03-23T08:25:34.609Z,23.57
2019-03-23T08:28:04.332Z,24.80
2019-03-23T08:30:33.931Z,24.43
2019-03-23T08:33:03.552Z,24.63
2019-03-23T08:35:33.100Z,24.90
2019-03-23T08:38:02.845Z,24.90
2019-03-23T08:40:32.454Z,23.80
2019-03-23T08:43:02.070Z,24.70
2019-03-23T08:45:31.686Z,24.37
2019-03-23T08:48:01.305Z,24.33
2019-03-23T08:50:30.889Z,25.73
2019-03-23T08:53:00.519Z,25.33
2019-03-23T08:55:30.132Z,25.53
2019-03-23T08:57:59.726Z,28.77
2019-03-23T09:00:29.376Z,25.83
2019-03-23T09:02:59.066Z,24.77
2019-03-23T09:05:28.768Z,25.17
2019-03-23T09:07:58.380Z,25.50
2019-03-23T09:10:28.100Z,24.60
2019-03-23T09:12:57.736Z,23.20
2019-03-23T09:15:27.418Z,22.50
2019-03-23T09:17:57.040Z,23.83
2019-03-23T09:20:26.674Z,23.83
2019-03-23T09:22:56.220Z,23.17
2019-03-23T09:25:25.846Z,24.77
2019-03-23T09:27:55.452Z,23.03
2019-03-23T09:30:25.064Z,23.30
2019-03-23T09:32:56.889Z,23.80
2019-03-23T09:35:26.032Z,25.13
2019-03-23T09:37:55.626Z,29.43
2019-03-23T09:40:25.234Z,23.97
2019-03-23T09:42:54.830Z,24.10
2019-03-23T09:45:24.480Z,25.50
2019-03-23T09:47:54.094Z,22.53
2019-03-23T09:50:23.734Z,25.23
2019-03-23T09:52:53.362Z,25.97
2019-03-23T09:55:23.011Z,24.27
2019-03-23T09:57:52.620Z,26.10
2019-03-23T10:00:22.287Z,25.40
2019-03-23T10:02:52.013Z,24.90
2019-03-23T10:05:21.633Z,24.87
2019-03-23T10:07:51.263Z,25.13
2019-03-23T10:10:22.037Z,24.60
2019-03-23T10:12:51.910Z,25.10
2019-03-23T10:15:21.523Z,24.07
2019-03-23T10:17:51.155Z,25.40
2019-03-23T10:20:20.762Z,24.10
2019-03-23T10:22:50.399Z,23.33
2019-03-23T10:25:20.021Z,24.30
2019-03-23T10:27:49.735Z,24.33
2019-03-23T10:30:19.348Z,25.60
2019-03-23T10:32:48.985Z,25.43
2019-03-23T10:35:18.611Z,22.90
2019-03-23T10:37:48.230Z,25.50
2019-03-23T10:40:17.852Z,25.33
2019-03-23T10:42:47.479Z,31.50
2019-03-23T10:45:17.075Z,25.37
2019-03-23T10:47:46.834Z,23.93
2019-03-23T10:50:16.672Z,25.43
2019-03-23T10:52:46.298Z,23.63
2019-03-23T10:55:15.912Z,23.73
2019-03-23T10:57:45.524Z,25.33
2019-03-23T11:00:15.432Z,24.00
2019-03-23T11:02:45.076Z,26.47
2019-03-23T11:05:14.685Z,28.40
2019-03-23T11:07:44.335Z,24.17
2019-03-23T11:10:14.411Z,25.00
2019-03-23T11:12:44.040Z,24.37
2019-03-23T11:15:13.653Z,24.63
2019-03-23T11:17:43.283Z,26.13
2019-03-23T11:20:13.034Z,27.30
2019-03-23T11:22:43.554Z,27.80
2019-03-23T11:25:13.374Z,26.57
2019-03-23T11:27:42.991Z,24.80
2019-03-23T11:30:12.847Z,26.23
2019-03-23T11:32:42.470Z,25.70
2019-03-23T11:35:12.129Z,25.23
2019-03-23T11:37:41.987Z,24.73
2019-03-23T11:40:12.270Z,25.90
2019-03-23T11:42:49.676Z,25.40
2019-03-23T11:45:13.359Z,24.03
2019-03-23T11:47:42.985Z,23.83
2019-03-23T11:50:12.935Z,24.70
2019-03-23T11:52:42.569Z,22.47
2019-03-23T11:55:12.466Z,23.20
2019-03-23T11:57:42.080Z,22.07
2019-03-23T12:00:12.735Z,24.50
2019-03-23T12:02:42.369Z,24.23
2019-03-23T12:05:12.811Z,24.00
2019-03-23T12:07:42.435Z,22.53
2019-03-23T12:10:12.766Z,22.17
2019-03-23T12:12:42.584Z,22.37
2019-03-23T12:15:13.049Z,24.40
2019-03-23T12:17:42.685Z,25.03
2019-03-23T12:20:13.005Z,24.07
2019-03-23T12:22:42.643Z,22.97
2019-03-23T12:25:12.283Z,23.97
2019-03-23T12:27:41.984Z,24.50
2019-03-23T12:30:13.730Z,24.77
2019-03-23T12:32:43.341Z,24.93
2019-03-23T12:35:12.953Z,23.90
2019-03-23T12:37:42.600Z,22.00
2019-03-23T12:40:12.718Z,23.60
2019-03-23T12:42:42.424Z,25.33
2019-03-23T12:45:12.741Z,23.93
2019-03-23T12:47:42.423Z,23.77
2019-03-23T12:50:12.380Z,24.50
2019-03-23T12:52:42.005Z,24.10
2019-03-23T12:55:11.756Z,21.50
2019-03-23T12:57:41.375Z,23.70
2019-03-23T13:00:11.827Z,23.03
2019-03-23T13:02:41.527Z,23.90
2019-03-23T13:05:11.224Z,22.00
2019-03-23T13:07:40.869Z,23.83
2019-03-23T13:10:10.727Z,22.03
2019-03-23T13:12:40.481Z,22.60
2019-03-23T13:15:11.355Z,23.53
2019-03-23T13:17:40.989Z,23.00
2019-03-23T13:20:10.985Z,22.33
2019-03-23T13:22:40.592Z,23.03
2019-03-23T13:25:10.741Z,22.47
2019-03-23T13:27:42.132Z,29.63
2019-03-23T13:30:12.361Z,23.60
2019-03-23T13:32:41.997Z,23.50
2019-03-23T13:35:11.933Z,23.73
2019-03-23T13:37:41.651Z,22.03
2019-03-23T13:40:11.945Z,24.17
2019-03-23T13:42:41.562Z,22.97
2019-03-23T13:45:11.579Z,29.30
2019-03-23T13:47:41.315Z,24.03
2019-03-23T13:50:11.478Z,23.23
2019-03-23T13:52:41.129Z,22.00
2019-03-23T13:55:23.859Z,22.47
2019-03-23T13:57:53.551Z,21.93
2019-03-23T14:00:23.170Z,23.37
2019-03-23T14:02:52.817Z,22.67
2019-03-23T14:05:22.453Z,67.80
2019-03-23T14:07:52.079Z,30.70
2019-03-23T14:10:21.786Z,23.37
2019-03-23T14:12:51.431Z,22.00
2019-03-23T14:15:21.043Z,22.70
2019-03-23T14:17:50.694Z,22.03
2019-03-23T14:20:20.327Z,22.37
2019-03-23T14:22:49.963Z,22.17
2019-03-23T14:25:19.672Z,21.00
2019-03-23T14:27:49.398Z,21.23
2019-03-23T14:30:19.026Z,22.03
2019-03-23T14:32:48.647Z,23.47
2019-03-23T14:35:18.326Z,23.37
2019-03-23T14:37:47.934Z,25.27
2019-03-23T14:40:17.531Z,25.30
2019-03-23T14:42:47.150Z,26.03
2019-03-23T14:45:16.774Z,24.10
2019-03-23T14:47:46.397Z,24.30
2019-03-23T14:50:16.095Z,23.83
2019-03-23T14:52:45.702Z,24.50
2019-03-23T14:55:15.426Z,24.93
2019-03-23T14:57:45.165Z,23.57
2019-03-23T15:00:16.975Z,25.13
2019-03-23T15:02:46.525Z,41.67
2019-03-23T15:05:16.270Z,28.90
2019-03-23T15:07:45.971Z,25.13
2019-03-23T15:10:15.601Z,25.20
2019-03-23T15:12:45.231Z,21.90
2019-03-23T15:15:14.858Z,20.37
2019-03-23T15:17:48.663Z,22.17
2019-03-23T15:20:15.805Z,22.17
2019-03-23T15:22:45.501Z,22.53
2019-03-23T15:25:15.096Z,25.30
2019-03-23T15:27:44.680Z,24.97
2019-03-23T15:30:14.340Z,23.90
2019-03-23T15:32:43.954Z,20.40
2019-03-23T15:35:13.639Z,23.30
2019-03-23T15:37:43.265Z,33.37
2019-03-23T15:40:13.204Z,100.43
2019-03-23T15:42:42.847Z,26.60
2019-03-23T15:45:13.164Z,23.45
2019-03-23T15:47:42.790Z,23.53
2019-03-23T15:50:12.743Z,24.63
2019-03-23T15:52:42.362Z,24.17
2019-03-23T15:55:11.988Z,25.13
2019-03-23T15:57:41.610Z,25.40
2019-03-23T16:00:13.203Z,51.97
2019-03-23T16:02:42.836Z,23.00
2019-03-23T16:05:12.616Z,24.63
2019-03-23T16:07:42.238Z,22.53
2019-03-23T16:10:11.907Z,23.07
2019-03-23T16:12:41.527Z,53.33
2019-03-23T16:15:12.177Z,32.93
2019-03-23T16:17:42.016Z,31.83
2019-03-23T16:20:12.362Z,26.53
2019-03-23T16:22:41.999Z,26.00
2019-03-23T16:25:12.370Z,24.70
2019-03-23T16:27:42.074Z,42.23
2019-03-23T16:30:14.072Z,29.93
2019-03-23T16:32:43.859Z,37.53
2019-03-23T16:35:13.640Z,26.77
2019-03-23T16:37:43.316Z,25.93
2019-03-23T16:40:13.266Z,27.10
2019-03-23T16:42:45.591Z,28.97
2019-03-23T16:45:14.356Z,29.47
2019-03-23T16:47:44.065Z,29.53
2019-03-23T16:50:13.908Z,28.40
2019-03-23T16:52:43.600Z,30.33
2019-03-23T16:55:13.697Z,29.70
2019-03-23T16:57:43.304Z,28.90
2019-03-23T17:00:14.058Z,32.70
2019-03-23T17:02:43.801Z,33.00
2019-03-23T17:05:14.743Z,32.20
2019-03-23T17:07:44.474Z,32.70
2019-03-23T17:10:14.128Z,30.70
2019-03-23T17:12:43.753Z,31.73
2019-03-23T17:15:13.902Z,30.37
2019-03-23T17:17:43.608Z,31.20
2019-03-23T17:20:13.235Z,31.07
2019-03-23T17:22:42.877Z,29.97
2019-03-23T17:25:12.534Z,32.63
2019-03-23T17:27:42.228Z,33.10
2019-03-23T17:30:11.942Z,32.63
2019-03-23T17:32:41.582Z,33.10
2019-03-23T17:35:11.227Z,33.60
2019-03-23T17:37:40.890Z,32.80
2019-03-23T17:40:10.847Z,33.43
2019-03-23T17:42:40.455Z,34.00
2019-03-23T17:45:10.329Z,31.67
2019-03-23T17:47:39.942Z,30.13
2019-03-23T17:50:09.846Z,33.07
2019-03-23T17:52:39.476Z,31.40
2019-03-23T17:55:09.232Z,31.73
2019-03-23T17:57:38.921Z,32.10
2019-03-23T18:00:09.903Z,32.93
2019-03-23T18:02:39.539Z,31.83
2019-03-23T18:05:12.051Z,31.73
2019-03-23T18:07:41.351Z,32.03
2019-03-23T18:10:11.404Z,31.83
2019-03-23T18:12:42.871Z,31.93
2019-03-23T18:15:12.828Z,33.53
2019-03-23T18:17:42.444Z,36.65
2019-03-23T18:20:12.187Z,33.87
2019-03-23T18:22:41.804Z,35.57
2019-03-23T18:25:11.428Z,35.17
2019-03-23T18:27:41.041Z,36.53
2019-03-23T18:30:52.337Z,35.43
2019-03-23T18:33:21.971Z,38.13
2019-03-23T18:35:51.658Z,39.60
2019-03-23T18:38:21.273Z,41.63
2019-03-23T18:40:51.084Z,40.33
2019-03-23T18:43:27.292Z,42.20
2019-03-23T18:45:52.156Z,41.90
2019-03-23T18:48:21.809Z,43.90
2019-03-23T18:50:51.504Z,45.63
2019-03-23T18:53:21.113Z,43.50
2019-03-23T18:55:50.732Z,44.07
2019-03-23T18:58:20.419Z,44.03
2019-03-23T19:00:50.046Z,45.90
2019-03-23T19:03:19.670Z,46.83
2019-03-23T19:05:49.375Z,45.33
2019-03-23T19:08:19.017Z,44.20
2019-03-23T19:10:48.631Z,46.03
2019-03-23T19:13:18.351Z,46.57
2019-03-23T19:15:47.911Z,46.97
2019-03-23T19:18:17.574Z,47.67
2019-03-23T19:20:47.232Z,47.77
2019-03-23T19:23:16.839Z,46.77
2019-03-23T19:25:46.489Z,47.40
2019-03-23T19:28:16.112Z,47.90
2019-03-23T19:30:45.756Z,46.73
2019-03-23T19:33:15.390Z,48.50
2019-03-23T19:35:45.067Z,50.13
2019-03-23T19:38:14.759Z,50.63
2019-03-23T19:40:44.480Z,49.63
2019-03-23T19:43:14.099Z,49.67
2019-03-23T19:45:43.704Z,50.70
2019-03-23T19:48:13.317Z,51.00
2019-03-23T19:50:42.947Z,49.13
2019-03-23T19:53:12.653Z,50.43
2019-03-23T19:55:42.353Z,52.57
2019-03-23T19:58:11.953Z,50.10
2019-03-23T20:00:41.556Z,52.23
2019-03-23T20:03:11.187Z,53.67
2019-03-23T20:05:40.827Z,51.50
2019-03-23T20:08:10.486Z,52.80
2019-03-23T20:10:40.086Z,53.77
2019-03-23T20:13:09.749Z,53.47
2019-03-23T20:15:39.391Z,51.80
2019-03-23T20:18:09.113Z,52.23
2019-03-23T20:20:38.705Z,51.37
2019-03-23T20:23:08.335Z,54.07
2019-03-23T20:25:39.798Z,52.90
2019-03-23T20:28:09.445Z,54.57
2019-03-23T20:30:39.063Z,51.50
2019-03-23T20:33:18.727Z,59.65
2019-03-23T20:35:40.058Z,55.43
2019-03-23T20:38:09.674Z,54.43
2019-03-23T20:40:39.407Z,54.87
2019-03-23T20:43:09.025Z,55.10
2019-03-23T20:45:38.655Z,53.40
2019-03-23T20:48:08.306Z,54.10
2019-03-23T20:50:38.631Z,53.73
2019-03-23T20:53:08.258Z,55.17
2019-03-23T20:55:37.884Z,54.27
2019-03-23T20:58:07.554Z,59.03
2019-03-23T21:00:37.165Z,58.53
2019-03-23T21:03:06.780Z,56.80
2019-03-23T21:05:36.394Z,58.63
2019-03-23T21:08:06.044Z,59.83
2019-03-23T21:10:35.664Z,59.67
2019-03-23T21:13:05.640Z,61.73
2019-03-23T21:15:35.281Z,60.87
2019-03-23T21:18:04.903Z,73.40
2019-03-23T21:20:34.585Z,64.13
2019-03-23T21:23:04.197Z,58.67
2019-03-23T21:25:33.830Z,56.90
2019-03-23T21:28:03.464Z,62.30
2019-03-23T21:30:33.096Z,59.40
2019-03-23T21:33:02.852Z,59.20
2019-03-23T21:35:32.529Z,59.27
2019-03-23T21:38:02.262Z,61.30
2019-03-23T21:40:31.880Z,64.10
2019-03-23T21:43:01.591Z,63.97
2019-03-23T21:45:31.209Z,61.57
2019-03-23T21:48:00.915Z,62.10
2019-03-23T21:50:30.492Z,63.77
2019-03-23T21:53:00.132Z,63.57
2019-03-23T21:55:29.872Z,66.10
2019-03-23T21:57:59.612Z,63.40
2019-03-23T22:00:33.684Z,62.03
2019-03-23T22:03:03.848Z,62.70
2019-03-23T22:05:33.517Z,60.80
2019-03-23T22:08:03.231Z,62.50
2019-03-23T22:10:32.845Z,60.57
2019-03-23T22:13:02.477Z,62.20
2019-03-23T22:15:33.497Z,64.50
2019-03-23T22:18:03.117Z,63.50
2019-03-23T22:20:32.787Z,65.30
2019-03-23T22:23:02.791Z,62.10
2019-03-23T22:25:32.480Z,63.93
2019-03-23T22:28:02.138Z,65.90
2019-03-23T22:30:31.787Z,65.53
2019-03-23T22:33:01.723Z,64.83
2019-03-23T22:35:31.336Z,69.17
2019-03-23T22:38:00.988Z,67.13
2019-03-23T22:40:30.618Z,66.93
2019-03-23T22:43:00.155Z,66.47
2019-03-23T22:45:29.807Z,71.43
2019-03-23T22:47:59.487Z,68.47
2019-03-23T22:50:29.096Z,68.30
2019-03-23T22:52:58.724Z,74.03
2019-03-23T22:55:28.334Z,64.50
2019-03-23T22:57:58.509Z,69.30
2019-03-23T23:00:42.748Z,68.90
2019-03-23T23:03:13.022Z,71.00
2019-03-23T23:05:42.748Z,70.70
2019-03-23T23:08:12.403Z,66.93
2019-03-23T23:10:42.031Z,67.27
2019-03-23T23:13:11.763Z,68.57
2019-03-23T23:15:41.396Z,66.77
2019-03-23T23:18:11.025Z,64.67
2019-03-23T23:20:40.689Z,70.10
2019-03-23T23:23:10.325Z,68.13
2019-03-23T23:25:39.933Z,69.57
2019-03-23T23:28:09.614Z,63.23
2019-03-23T23:30:39.155Z,68.10
2019-03-23T23:33:08.766Z,66.87
2019-03-23T23:35:38.427Z,65.80
2019-03-23T23:38:08.026Z,63.10
2019-03-23T23:40:37.638Z,62.37
2019-03-23T23:43:07.266Z,65.93
2019-03-23T23:45:36.879Z,65.80
2019-03-23T23:48:06.600Z,65.60
2019-03-23T23:50:36.243Z,64.53
2019-03-23T23:53:05.859Z,64.77
2019-03-23T23:55:35.480Z,66.90
2019-03-23T23:58:05.124Z,64.37
